Time;durP1;ratioP1;P1;durP2;ratioP2;P2;SDS_P1;SDS_P2;PMS_P1;PMS_P2;Temp;Humidity;BMP_temperature;BMP_pressure;BME280_temperature;BME280_humidity;BME280_pressure;Samples;Min_cycle;Max_cycle;Signal;HPM_P1;HPM_P2
2022/01/28 00:04:47;;;;;;;17.42;3.60;;;7.70;91.00;;;;;;5101326;28;20040;-69
2022/01/28 00:07:12;;;;;;;33.08;4.90;;;7.60;90.90;;;;;;5103077;28;20032;-69
2022/01/28 00:09:38;;;;;;;23.08;4.00;;;7.60;90.90;;;;;;5094023;28;20069;-69
2022/01/28 00:12:06;;;;;;;17.85;3.40;;;7.60;90.80;;;;;;5094856;28;20078;-68
2022/01/28 00:38:47;;;;;;;24.70;3.20;;;7.50;90.80;;;;;;5094290;28;20028;-69
2022/01/28 00:41:14;;;;;;;26.40;4.57;;;7.50;91.20;;;;;;5093600;28;20383;-69
2022/01/28 00:43:40;;;;;;;15.52;2.97;;;7.50;91.20;;;;;;5093203;28;20110;-69
2022/01/28 00:46:06;;;;;;;15.70;2.90;;;7.50;91.60;;;;;;5095558;28;20031;-69
2022/01/28 00:48:31;;;;;;;16.77;3.13;;;7.50;91.60;;;;;;5105524;28;20043;-68
2022/01/28 00:50:57;;;;;;;23.63;3.75;;;7.50;91.30;;;;;;5106609;28;20027;-69
2022/01/28 00:53:23;;;;;;;22.63;4.05;;;7.40;91.10;;;;;;5102881;28;20056;-69
2022/01/28 00:55:49;;;;;;;20.98;4.20;;;7.50;91.20;;;;;;5088111;28;20384;-69
2022/01/28 00:58:14;;;;;;;24.67;3.58;;;7.40;91.50;;;;;;5089228;28;20059;-69
2022/01/28 01:00:41;;;;;;;14.77;2.95;;;7.40;91.50;;;;;;5093272;28;20395;-69
2022/01/28 01:03:07;;;;;;;18.70;3.13;;;7.40;91.70;;;;;;5089170;28;20082;-69
2022/01/28 01:05:34;;;;;;;14.48;2.58;;;7.50;91.90;;;;;;5083865;28;20459;-69
2022/01/28 01:08:04;;;;;;;5.85;2.22;;;7.40;91.70;;;;;;5074613;28;20029;-69
2022/01/28 01:10:30;;;;;;;25.70;4.00;;;7.40;91.90;;;;;;5074669;28;20124;-69
2022/01/28 01:12:56;;;;;;;23.55;3.78;;;7.50;91.80;;;;;;5091573;28;20111;-69
2022/01/28 01:15:26;;;;;;;20.08;4.18;;;7.50;91.60;;;;;;5081556;28;20132;-69
2022/01/28 01:18:00;;;;;;;14.57;3.08;;;7.50;91.50;;;;;;5091860;28;20777;-68
2022/01/28 01:23:15;;;;;;;18.98;1.40;;;7.50;91.40;;;;;;5101371;28;20081;-69
2022/01/28 01:28:11;;;;;;;26.23;4.38;;;7.50;91.20;;;;;;5101973;28;20069;-69
2022/01/28 01:30:40;;;;;;;34.17;4.07;;;7.50;90.90;;;;;;5075863;28;20474;-69
2022/01/28 01:33:08;;;;;;;8.60;2.25;;;7.50;90.70;;;;;;5084452;28;20073;-69
2022/01/28 01:35:38;;;;;;;13.32;2.80;;;7.50;90.00;;;;;;5081750;28;20461;-69
2022/01/28 01:38:06;;;;;;;18.23;3.13;;;7.40;90.40;;;;;;5090921;28;20040;-68
2022/01/28 01:40:43;;;;;;;19.00;3.72;;;7.40;91.00;;;;;;5092185;28;20028;-69
2022/01/28 01:53:36;;;;;;;16.42;3.83;;;7.50;91.50;;;;;;5071309;28;20131;-69
2022/01/28 01:56:01;;;;;;;10.82;2.08;;;7.50;91.40;;;;;;5080296;28;20460;-69
2022/01/28 01:58:31;;;;;;;16.48;2.83;;;7.50;91.30;;;;;;5090481;28;20421;-69
2022/01/28 02:01:01;;;;;;;9.80;2.13;;;7.50;91.40;;;;;;5091986;28;20028;-69
2022/01/28 02:03:28;;;;;;;20.75;3.15;;;7.50;91.00;;;;;;5079621;28;20115;-69
2022/01/28 02:05:59;;;;;;;29.00;3.75;;;7.50;91.20;;;;;;5093020;28;20032;-69
2022/01/28 02:08:26;;;;;;;25.60;4.03;;;7.50;90.80;;;;;;5087600;28;20027;-69
2022/01/28 02:10:57;;;;;;;32.03;5.10;;;7.60;90.80;;;;;;5083474;28;20039;-69
2022/01/28 02:13:33;;;;;;;41.22;5.32;;;7.60;90.90;;;;;;5074376;28;20048;-68
2022/01/28 02:16:00;;;;;;;34.33;5.78;;;7.70;91.00;;;;;;5078646;28;20032;-68
2022/01/28 02:18:26;;;;;;;23.80;5.35;;;7.70;91.10;;;;;;5091376;28;20040;-68
2022/01/28 02:20:55;;;;;;;28.15;5.10;;;7.70;91.20;;;;;;5082172;28;20073;-69
2022/01/28 02:23:22;;;;;;;29.88;4.68;;;7.60;90.70;;;;;;5105569;28;20047;-69
2022/01/28 02:25:48;;;;;;;25.80;4.78;;;7.60;91.10;;;;;;5092325;28;20020;-69
2022/01/28 02:28:15;;;;;;;18.60;3.45;;;7.70;90.90;;;;;;5086239;28;20032;-69
2022/01/28 02:30:41;;;;;;;18.23;3.38;;;7.70;90.70;;;;;;5092465;28;20122;-69
2022/01/28 02:33:16;;;;;;;16.55;3.03;;;7.70;90.90;;;;;;5091762;28;20064;-69
2022/01/28 02:35:43;;;;;;;24.88;3.40;;;7.70;90.90;;;;;;5101646;28;20068;-69
2022/01/28 02:38:13;;;;;;;15.63;2.25;;;7.70;91.20;;;;;;5091558;28;20036;-68
2022/01/28 02:40:43;;;;;;;11.75;2.53;;;7.70;91.70;;;;;;5083261;28;20035;-68
2022/01/28 02:45:45;;;;;;;13.98;2.30;;;7.70;92.00;;;;;;5080330;28;20473;-68
2022/01/28 02:48:18;;;;;;;9.85;2.35;;;7.70;92.20;;;;;;5078872;28;20067;-68
2022/01/28 02:51:03;;;;;;;2.83;1.42;;;7.80;92.30;;;;;;5092537;28;20051;-69
2022/01/28 02:53:39;;;;;;;6.40;1.75;;;7.70;92.20;;;;;;5101293;28;20052;-68
2022/01/28 02:56:13;;;;;;;13.13;3.22;;;7.80;92.10;;;;;;5090852;28;20396;-68
2022/01/28 02:58:39;;;;;;;10.15;2.40;;;7.70;91.90;;;;;;5079350;28;20125;-68
2022/01/28 03:01:05;;;;;;;15.35;2.65;;;7.70;91.70;;;;;;5092494;28;20069;-69
2022/01/28 03:03:31;;;;;;;16.10;3.00;;;7.70;91.30;;;;;;5091466;28;20447;-69
2022/01/28 03:05:57;;;;;;;8.80;1.48;;;7.70;91.30;;;;;;5080150;28;20392;-69
2022/01/28 03:08:28;;;;;;;22.95;3.70;;;7.70;91.50;;;;;;5092085;28;20485;-69
2022/01/28 03:16:08;;;;;;;12.57;2.65;;;7.80;90.70;;;;;;5091590;28;20028;-69
2022/01/28 03:18:48;;;;;;;14.93;2.50;;;7.80;90.90;;;;;;5104010;28;20039;-69
2022/01/28 03:24:05;;;;;;;18.02;3.22;;;7.80;90.60;;;;;;5088923;28;20024;-69
2022/01/28 03:26:31;;;;;;;26.25;3.90;;;7.80;90.20;;;;;;5090696;28;20123;-69
2022/01/28 03:28:57;;;;;;;22.17;3.30;;;7.80;90.50;;;;;;5091555;28;20127;-69
2022/01/28 03:31:23;;;;;;;17.83;3.20;;;7.80;89.30;;;;;;5093010;28;20028;-69
2022/01/28 03:33:48;;;;;;;25.25;3.72;;;7.70;89.00;;;;;;5095494;28;20376;-69
2022/01/28 03:36:14;;;;;;;14.05;2.72;;;7.70;88.40;;;;;;5083732;28;20047;-69
2022/01/28 03:38:42;;;;;;;17.63;3.63;;;7.70;88.60;;;;;;5084910;28;20036;-67
2022/01/28 03:41:15;;;;;;;23.25;2.58;;;7.80;88.60;;;;;;5094984;28;20032;-67
2022/01/28 03:43:41;;;;;;;14.40;2.55;;;7.80;89.20;;;;;;5077571;28;20042;-67
2022/01/28 03:46:07;;;;;;;24.25;4.28;;;7.80;90.20;;;;;;5085909;28;20024;-67
2022/01/28 03:48:33;;;;;;;21.25;3.92;;;7.80;89.30;;;;;;5095065;28;20028;-67
2022/01/28 03:50:58;;;;;;;17.75;3.17;;;7.90;88.30;;;;;;5094673;28;20024;-67
2022/01/28 03:53:24;;;;;;;17.60;2.85;;;7.80;88.80;;;;;;5094238;28;20048;-67
2022/01/28 03:55:52;;;;;;;12.10;2.58;;;7.80;89.50;;;;;;5094637;28;20024;-67
2022/01/28 03:58:18;;;;;;;14.57;2.85;;;7.90;90.30;;;;;;5088690;28;20040;-67
2022/01/28 04:00:44;;;;;;;16.63;2.47;;;7.90;90.70;;;;;;5087326;28;20039;-67
2022/01/28 04:13:45;;;;;;;17.75;2.15;;;8.00;91.10;;;;;;5088958;28;20023;-67
2022/01/28 04:18:40;;;;;;;7.18;2.05;;;8.00;91.30;;;;;;5094641;28;20252;-67
2022/01/28 04:21:06;;;;;;;7.70;1.80;;;8.00;91.30;;;;;;5088448;28;20040;-67
2022/01/28 04:23:31;;;;;;;20.75;3.67;;;8.00;91.10;;;;;;5082523;28;20032;-67
2022/01/28 04:25:57;;;;;;;7.53;2.63;;;8.00;91.20;;;;;;5094065;28;20055;-67
2022/01/28 04:28:22;;;;;;;8.85;2.53;;;8.00;91.50;;;;;;5093751;28;20538;-67
2022/01/28 04:30:48;;;;;;;8.30;1.73;;;8.00;91.60;;;;;;5094107;28;20034;-67
2022/01/28 04:33:14;;;;;;;7.10;1.48;;;8.00;91.80;;;;;;5094471;28;20038;-67
2022/01/28 04:35:39;;;;;;;13.20;2.20;;;8.10;91.90;;;;;;5092587;28;20056;-67
2022/01/28 04:40:35;;;;;;;11.23;2.00;;;8.20;91.90;;;;;;5093966;28;20085;-67
2022/01/28 04:45:53;;;;;;;29.33;5.05;;;8.20;91.80;;;;;;5089517;28;20406;-67
2022/01/28 04:48:42;;;;;;;28.08;5.00;;;8.20;91.50;;;;;;5083157;28;20044;-67
2022/01/28 04:53:49;;;;;;;20.83;2.55;;;8.20;91.30;;;;;;5074435;28;20390;-67
2022/01/28 04:58:56;;;;;;;6.70;1.65;;;8.10;90.50;;;;;;5096920;28;20040;-66
2022/01/28 05:02:13;;;;;;;30.63;5.18;;;8.10;90.80;;;;;;5106133;28;20027;-67
2022/01/28 05:07:27;;;;;;;22.50;4.47;;;8.10;90.90;;;;;;5080841;28;20118;-67
2022/01/28 05:28:50;;;;;;;19.98;2.95;;;8.10;91.60;;;;;;5108217;28;20167;-68
2022/01/28 05:31:17;;;;;;;19.98;3.70;;;8.10;91.70;;;;;;5096597;28;20516;-68
2022/01/28 05:33:43;;;;;;;22.08;3.65;;;8.10;91.60;;;;;;5099308;28;20042;-68
2022/01/28 05:36:08;;;;;;;20.98;3.42;;;8.20;91.50;;;;;;5093092;28;20055;-68
2022/01/28 05:38:37;;;;;;;27.20;3.75;;;8.20;91.50;;;;;;5091815;28;20066;-68
2022/01/28 05:41:03;;;;;;;19.17;3.58;;;8.20;91.30;;;;;;5093014;28;20028;-68
2022/01/28 05:43:28;;;;;;;29.30;3.60;;;8.20;91.20;;;;;;5089399;28;20108;-69
2022/01/28 05:45:54;;;;;;;9.20;1.55;;;8.20;90.80;;;;;;5083492;28;20070;-68
2022/01/28 05:48:21;;;;;;;10.85;2.25;;;8.20;91.40;;;;;;5083631;28;20032;-69
2022/01/28 05:50:47;;;;;;;22.35;2.60;;;8.20;91.60;;;;;;5104720;28;20123;-68
2022/01/28 05:53:13;;;;;;;6.70;1.38;;;8.20;91.80;;;;;;5098789;28;20062;-69
2022/01/28 05:55:39;;;;;;;23.23;3.72;;;8.20;91.90;;;;;;5107858;28;20106;-69
2022/01/28 05:58:05;;;;;;;21.95;2.08;;;8.30;92.00;;;;;;5105781;28;20028;-69
2022/01/28 06:00:31;;;;;;;8.20;2.85;;;8.30;92.00;;;;;;5102174;28;20032;-69
2022/01/28 06:02:57;;;;;;;19.30;3.28;;;8.30;92.10;;;;;;5101400;28;20110;-69
2022/01/28 06:05:29;;;;;;;19.65;4.53;;;8.40;92.10;;;;;;5112169;28;20363;-69
2022/01/28 06:07:55;;;;;;;12.70;3.10;;;8.40;92.10;;;;;;5102920;28;20387;-70
2022/01/28 06:10:20;;;;;;;32.05;4.65;;;8.50;92.10;;;;;;5107612;28;20035;-69
2022/01/28 06:12:49;;;;;;;26.80;3.10;;;8.60;92.10;;;;;;5108860;28;20028;-69
2022/01/28 06:15:15;;;;;;;7.65;1.63;;;8.60;92.00;;;;;;5090435;28;20094;-69
2022/01/28 06:17:41;;;;;;;12.32;2.50;;;8.60;91.90;;;;;;5106822;28;20080;-69
2022/01/28 06:20:10;;;;;;;7.45;1.63;;;8.60;91.90;;;;;;5101025;28;20127;-69
2022/01/28 06:22:40;;;;;;;11.05;1.75;;;8.70;91.90;;;;;;5095656;28;20032;-68
2022/01/28 06:25:07;;;;;;;6.15;2.60;;;8.70;91.90;;;;;;5103864;28;20028;-68
2022/01/28 06:27:33;;;;;;;6.68;1.98;;;8.70;91.90;;;;;;5108102;28;20034;-68
2022/01/28 06:30:04;;;;;;;13.10;1.58;;;8.70;91.80;;;;;;5111841;28;20031;-68
2022/01/28 06:32:30;;;;;;;13.70;1.92;;;8.80;91.80;;;;;;5105958;28;20545;-67
2022/01/28 06:34:58;;;;;;;2.65;1.00;;;8.70;91.60;;;;;;5106593;28;20028;-68
2022/01/28 06:37:23;;;;;;;17.10;2.42;;;8.70;91.70;;;;;;5107844;28;20114;-68
2022/01/28 06:39:49;;;;;;;7.70;2.13;;;8.70;91.60;;;;;;5104950;28;20168;-68
2022/01/28 06:42:15;;;;;;;10.38;1.38;;;8.60;92.00;;;;;;5108423;28;20131;-69
2022/01/28 06:44:40;;;;;;;14.95;2.83;;;8.60;91.80;;;;;;5101680;28;20038;-68
2022/01/28 06:47:10;;;;;;;11.65;2.22;;;8.60;91.80;;;;;;5104641;28;20035;-69
2022/01/28 06:49:37;;;;;;;8.90;2.15;;;8.60;91.80;;;;;;5101709;28;20032;-69
2022/01/28 06:52:03;;;;;;;6.72;2.03;;;8.60;91.60;;;;;;5101589;28;20088;-69
2022/01/28 06:54:29;;;;;;;28.27;2.92;;;8.50;92.00;;;;;;5100411;28;20036;-69
2022/01/28 06:56:55;;;;;;;13.25;1.88;;;8.50;91.80;;;;;;5098300;28;20030;-69
2022/01/28 06:59:20;;;;;;;13.30;2.13;;;8.50;91.80;;;;;;5100325;28;20438;-69
2022/01/28 07:01:46;;;;;;;18.63;2.55;;;8.50;91.90;;;;;;5101873;28;20031;-69
2022/01/28 07:04:12;;;;;;;20.15;4.20;;;8.50;91.90;;;;;;5101841;28;20032;-70
2022/01/28 07:06:37;;;;;;;20.90;3.08;;;8.50;91.90;;;;;;5107223;28;20471;-68
2022/01/28 07:09:03;;;;;;;18.42;2.50;;;8.60;91.80;;;;;;5104961;28;20110;-68
2022/01/28 07:11:28;;;;;;;20.95;1.92;;;8.60;91.80;;;;;;5096895;28;20028;-69
2022/01/28 07:13:54;;;;;;;10.77;1.73;;;8.60;91.80;;;;;;5085644;28;20098;-69
2022/01/28 07:16:20;;;;;;;12.90;2.67;;;8.50;91.60;;;;;;5094277;28;20455;-70
2022/01/28 07:18:46;;;;;;;18.10;2.33;;;8.60;91.60;;;;;;5095111;28;20408;-68
2022/01/28 07:21:11;;;;;;;25.70;3.50;;;8.50;91.10;;;;;;5077713;28;20020;-68
2022/01/28 07:23:37;;;;;;;11.43;2.50;;;8.50;91.30;;;;;;5094875;28;20538;-68
2022/01/28 07:26:03;;;;;;;25.52;3.22;;;8.50;91.40;;;;;;5094861;28;20020;-68
2022/01/28 07:28:31;;;;;;;21.52;3.63;;;8.50;91.20;;;;;;5095273;28;20032;-68
2022/01/28 07:30:56;;;;;;;14.95;3.03;;;8.40;91.10;;;;;;5094396;28;20031;-67
2022/01/28 07:33:22;;;;;;;13.82;2.50;;;8.50;91.40;;;;;;5095588;28;20047;-68
2022/01/28 07:35:47;;;;;;;22.90;3.22;;;8.50;91.20;;;;;;5095267;28;20027;-68
2022/01/28 07:38:13;;;;;;;15.32;2.17;;;8.50;91.10;;;;;;5094501;28;20550;-67
2022/01/28 07:40:39;;;;;;;21.60;2.88;;;8.50;91.10;;;;;;5095214;28;20114;-68
2022/01/28 07:43:05;;;;;;;15.40;2.78;;;8.50;91.10;;;;;;5086913;28;20037;-68
2022/01/28 07:45:30;;;;;;;12.32;2.20;;;8.50;91.20;;;;;;5080494;28;20028;-68
2022/01/28 07:47:56;;;;;;;20.98;2.90;;;8.60;91.20;;;;;;5088699;28;20072;-67
2022/01/28 07:50:22;;;;;;;13.30;2.20;;;8.50;91.20;;;;;;5095149;28;20031;-68
2022/01/28 07:52:47;;;;;;;19.80;2.95;;;8.50;91.20;;;;;;5094126;28;20056;-68
2022/01/28 07:55:14;;;;;;;12.38;2.88;;;8.50;91.30;;;;;;5096493;28;20059;-68
2022/01/28 07:57:41;;;;;;;8.20;2.00;;;8.40;91.20;;;;;;5103455;28;20073;-68
2022/01/28 08:00:09;;;;;;;20.67;3.35;;;8.40;91.30;;;;;;5097345;28;20034;-68
2022/01/28 08:02:38;;;;;;;24.83;4.43;;;8.40;91.10;;;;;;5112044;28;20049;-67
2022/01/28 08:05:04;;;;;;;26.73;3.28;;;8.40;90.90;;;;;;5111159;28;20024;-68
2022/01/28 08:07:29;;;;;;;23.23;3.70;;;8.40;90.40;;;;;;5113731;28;20390;-67
2022/01/28 08:09:55;;;;;;;27.98;3.20;;;8.30;90.10;;;;;;5102413;28;20115;-68
2022/01/28 08:12:21;;;;;;;24.08;4.32;;;8.30;89.80;;;;;;5108529;28;20055;-68
2022/01/28 08:14:47;;;;;;;34.70;4.20;;;8.30;90.00;;;;;;5093544;28;20103;-68
2022/01/28 08:17:13;;;;;;;23.90;3.25;;;8.40;89.30;;;;;;5098554;28;20558;-67
2022/01/28 08:19:39;;;;;;;26.33;4.13;;;8.30;89.50;;;;;;5087769;28;20038;-68
2022/01/28 08:22:05;;;;;;;30.90;3.58;;;8.40;89.10;;;;;;5094436;28;20038;-67
2022/01/28 08:24:30;;;;;;;29.10;3.97;;;8.30;89.00;;;;;;5094327;28;20063;-68
2022/01/28 08:26:56;;;;;;;23.25;3.70;;;8.30;88.70;;;;;;5085137;28;20067;-68
2022/01/28 08:29:22;;;;;;;19.88;3.45;;;8.30;88.30;;;;;;5088673;28;20035;-68
2022/01/28 08:31:48;;;;;;;17.38;3.85;;;8.40;87.60;;;;;;5084377;28;20471;-67
2022/01/28 08:34:14;;;;;;;18.30;2.53;;;8.30;86.90;;;;;;5096862;28;20028;-67
2022/01/28 08:36:43;;;;;;;31.77;4.00;;;8.30;87.70;;;;;;5103776;28;20031;-67
2022/01/28 08:39:11;;;;;;;18.48;2.35;;;8.40;87.30;;;;;;5091074;28;20071;-67
2022/01/28 08:41:40;;;;;;;11.25;3.03;;;8.40;87.20;;;;;;5084986;28;20028;-68
2022/01/28 08:44:06;;;;;;;26.17;3.15;;;8.40;87.50;;;;;;5084453;28;20024;-67
2022/01/28 08:46:32;;;;;;;26.48;3.90;;;8.30;87.40;;;;;;5085927;28;20024;-67
2022/01/28 08:48:57;;;;;;;25.52;3.30;;;8.30;88.50;;;;;;5090782;28;20032;-67
2022/01/28 08:51:23;;;;;;;31.95;4.32;;;8.40;88.30;;;;;;5104978;28;20035;-67
2022/01/28 08:53:49;;;;;;;27.38;5.38;;;8.30;88.00;;;;;;5093227;28;20425;-68
2022/01/28 08:56:24;;;;;;;20.23;3.20;;;8.30;87.90;;;;;;5093314;28;20114;-67
2022/01/28 08:58:50;;;;;;;25.23;3.08;;;8.40;87.70;;;;;;5093403;28;20122;-67
2022/01/28 09:01:15;;;;;;;39.67;5.53;;;8.40;87.80;;;;;;5093986;28;20040;-67
2022/01/28 09:03:41;;;;;;;25.30;3.88;;;8.40;87.90;;;;;;5088550;28;20431;-67
2022/01/28 09:06:07;;;;;;;27.48;3.63;;;8.40;87.90;;;;;;5085500;28;20115;-67
2022/01/28 09:08:32;;;;;;;28.00;3.60;;;8.40;87.80;;;;;;5093404;28;20054;-67
2022/01/28 09:13:42;;;;;;;22.30;2.72;;;8.40;88.30;;;;;;5081399;28;20047;-68
2022/01/28 09:16:08;;;;;;;32.95;4.20;;;8.40;88.30;;;;;;5105767;28;20027;-67
2022/01/28 09:18:34;;;;;;;30.50;3.33;;;8.40;88.30;;;;;;5093529;28;20130;-67
2022/01/28 09:20:59;;;;;;;32.50;4.38;;;8.50;88.30;;;;;;5102785;28;20430;-67
2022/01/28 09:23:25;;;;;;;21.70;4.55;;;8.40;87.90;;;;;;5092779;28;20419;-67
2022/01/28 09:25:51;;;;;;;26.25;4.00;;;8.40;87.50;;;;;;5106355;28;20505;-67
2022/01/28 09:28:16;;;;;;;25.00;4.13;;;8.50;88.00;;;;;;5092889;28;20024;-67
2022/01/28 09:30:42;;;;;;;26.83;4.10;;;8.40;87.70;;;;;;5105511;28;20032;-68
2022/01/28 09:33:08;;;;;;;11.40;1.50;;;8.50;88.30;;;;;;5093372;28;20036;-66
2022/01/28 09:35:34;;;;;;;21.48;3.38;;;8.40;89.00;;;;;;5091056;28;20027;-75
2022/01/28 09:38:07;;;;;;;33.80;3.75;;;8.40;89.30;;;;;;5099627;28;20032;-67
2022/01/28 09:40:32;;;;;;;34.30;4.20;;;8.50;88.40;;;;;;5112614;27;20097;-68
2022/01/28 09:43:00;;;;;;;36.50;5.22;;;8.50;88.20;;;;;;5102284;28;20028;-69
2022/01/28 09:45:26;;;;;;;27.15;4.60;;;8.50;88.00;;;;;;5108815;28;20032;-67
2022/01/28 09:47:56;;;;;;;28.27;3.53;;;8.50;88.00;;;;;;5107278;28;20035;-74
2022/01/28 09:50:27;;;;;;;17.58;2.83;;;8.60;88.40;;;;;;5111071;28;20118;-69
2022/01/28 09:52:55;;;;;;;23.17;3.20;;;8.60;88.40;;;;;;5107524;28;20048;-68
2022/01/28 09:55:22;;;;;;;12.38;2.35;;;8.70;88.50;;;;;;5110159;28;20382;-68
2022/01/28 09:57:54;;;;;;;25.08;2.97;;;8.70;88.50;;;;;;5107414;28;20024;-68
2022/01/28 10:00:22;;;;;;;30.58;4.07;;;8.70;88.30;;;;;;5108727;28;20046;-69
2022/01/28 10:03:03;;;;;;;27.73;3.45;;;8.70;88.70;;;;;;5108920;28;20414;-67
2022/01/28 10:05:37;;;;;;;20.38;3.08;;;8.70;88.80;;;;;;5110315;28;20031;-66
2022/01/28 10:08:19;;;;;;;18.85;3.40;;;8.80;87.60;;;;;;5109476;28;20548;-67
2022/01/28 10:10:54;;;;;;;31.08;3.67;;;8.80;88.10;;;;;;5107527;28;20052;-65
2022/01/28 10:13:54;;;;;;;16.35;2.90;;;8.80;88.00;;;;;;5111482;28;20027;-68
2022/01/28 10:16:25;;;;;;;21.23;1.90;;;8.80;88.40;;;;;;5099062;28;20033;-68
2022/01/28 10:18:56;;;;;;;24.42;3.42;;;8.90;89.20;;;;;;5106735;28;20116;-68
2022/01/28 10:21:30;;;;;;;26.98;4.47;;;8.90;88.20;;;;;;5106638;28;20483;-68
2022/01/28 10:24:05;;;;;;;30.58;4.10;;;8.90;87.70;;;;;;5108499;28;20035;-68
2022/01/28 10:26:54;;;;;;;10.18;2.53;;;8.90;86.70;;;;;;5107293;28;20082;-68
2022/01/28 10:29:24;;;;;;;17.67;2.13;;;8.90;86.70;;;;;;5111860;28;20016;-68
2022/01/28 10:32:06;;;;;;;17.13;2.78;;;8.90;86.40;;;;;;5106827;28;20376;-68
2022/01/28 10:34:38;;;;;;;20.13;3.08;;;8.90;86.20;;;;;;5107732;28;20024;-68
2022/01/28 10:37:18;;;;;;;14.65;2.95;;;8.90;86.80;;;;;;5110220;28;20043;-68
2022/01/28 10:39:59;;;;;;;19.88;2.38;;;8.90;87.30;;;;;;5106876;28;20082;-68
2022/01/28 10:42:51;;;;;;;19.60;2.60;;;8.90;88.10;;;;;;5080225;28;20017;-68
2022/01/28 10:45:20;;;;;;;29.27;4.28;;;9.00;86.00;;;;;;5105743;28;20118;-68
2022/01/28 10:47:57;;;;;;;27.80;3.75;;;9.00;86.40;;;;;;5082937;28;20028;-67
2022/01/28 10:50:34;;;;;;;27.83;4.20;;;9.00;86.60;;;;;;5107383;28;20038;-67
2022/01/28 10:53:15;;;;;;;21.30;2.88;;;9.00;85.90;;;;;;5100805;28;20051;-68
2022/01/28 10:55:54;;;;;;;16.98;2.83;;;9.10;86.70;;;;;;5113400;28;20027;-68
2022/01/28 10:58:25;;;;;;;15.00;2.05;;;9.10;85.90;;;;;;5110416;28;20027;-68
2022/01/28 11:00:59;;;;;;;21.73;3.28;;;9.10;87.70;;;;;;5112557;28;20039;-69
2022/01/28 11:03:27;;;;;;;24.00;2.70;;;9.10;86.90;;;;;;5096547;28;20027;-68
2022/01/28 11:06:00;;;;;;;19.80;2.80;;;9.10;87.40;;;;;;5108773;28;20080;-68
2022/01/28 11:08:31;;;;;;;14.82;3.40;;;9.10;87.20;;;;;;5109011;28;20035;-68
2022/01/28 11:11:01;;;;;;;19.52;3.03;;;9.20;86.70;;;;;;5112546;28;20036;-68
2022/01/28 11:13:28;;;;;;;27.75;3.35;;;9.20;86.50;;;;;;5111295;28;20023;-69
2022/01/28 11:15:54;;;;;;;32.42;3.53;;;9.20;85.60;;;;;;5089979;28;20117;-69
2022/01/28 11:18:20;;;;;;;19.30;3.13;;;9.20;85.80;;;;;;5101735;28;20028;-69
2022/01/28 11:20:57;;;;;;;19.42;2.55;;;9.30;86.20;;;;;;5112673;28;20028;-69
2022/01/28 11:23:40;;;;;;;18.20;2.53;;;9.20;85.60;;;;;;5075387;28;20036;-68
2022/01/28 11:26:28;;;;;;;24.87;3.73;;;9.30;86.60;;;;;;5101743;28;20020;-68
2022/01/28 11:28:56;;;;;;;30.95;3.78;;;9.30;87.00;;;;;;5110794;28;20285;-68
2022/01/28 11:31:46;;;;;;;14.68;2.58;;;9.30;86.90;;;;;;5113015;28;20467;-67
2022/01/28 11:34:18;;;;;;;18.45;3.15;;;9.40;86.60;;;;;;5110848;28;20031;-68
2022/01/28 11:36:44;;;;;;;21.80;2.95;;;9.40;85.30;;;;;;5105268;28;20069;-69
2022/01/28 11:39:22;;;;;;;17.77;2.70;;;9.40;85.40;;;;;;5111534;28;20054;-69
2022/01/28 11:42:06;;;;;;;28.05;3.22;;;9.40;85.00;;;;;;5107500;28;20035;-69
2022/01/28 11:44:49;;;;;;;5.93;1.35;;;9.50;85.60;;;;;;5110549;28;20027;-69
2022/01/28 11:47:30;;;;;;;29.83;3.80;;;9.50;85.20;;;;;;5096761;28;20030;-68
2022/01/28 11:49:55;;;;;;;19.23;3.00;;;9.50;86.40;;;;;;5094852;28;20074;-68
2022/01/28 11:52:29;;;;;;;22.05;4.18;;;9.50;86.00;;;;;;5106626;28;20036;-69
2022/01/28 11:55:14;;;;;;;23.38;2.22;;;9.60;85.20;;;;;;5095323;28;20102;-66
2022/01/28 11:57:50;;;;;;;19.38;3.00;;;9.60;86.20;;;;;;5082938;28;20028;-64
2022/01/28 12:00:24;;;;;;;15.43;3.22;;;9.70;84.90;;;;;;5095266;28;20039;-70
2022/01/28 12:02:51;;;;;;;7.20;1.67;;;9.60;84.00;;;;;;5094726;28;20110;-70
2022/01/28 12:05:32;;;;;;;22.77;2.80;;;9.70;85.90;;;;;;5093173;28;20051;-69
2022/01/28 12:08:00;;;;;;;15.68;2.65;;;9.80;88.10;;;;;;5094518;28;20040;-70
2022/01/28 12:10:28;;;;;;;13.98;2.88;;;9.80;88.80;;;;;;5094571;28;20024;-69
2022/01/28 12:13:05;;;;;;;11.38;2.22;;;9.70;89.80;;;;;;5093553;28;20035;-69
2022/01/28 12:15:57;;;;;;;23.83;2.95;;;9.70;90.30;;;;;;5084896;28;20032;-69
2022/01/28 12:18:22;;;;;;;16.85;3.13;;;9.80;90.10;;;;;;5094467;28;20056;-69
2022/01/28 12:20:49;;;;;;;17.00;2.80;;;9.70;90.30;;;;;;5076768;28;20704;-69
2022/01/28 12:23:17;;;;;;;18.40;3.58;;;9.80;90.60;;;;;;5074982;28;20043;-69
2022/01/28 12:25:43;;;;;;;22.50;2.63;;;9.80;90.40;;;;;;5075780;28;20089;-69
2022/01/28 12:28:24;;;;;;;12.30;1.83;;;9.80;90.60;;;;;;5093845;28;20479;-69
2022/01/28 12:31:27;;;;;;;19.13;2.78;;;9.90;90.80;;;;;;5094068;28;20395;-71
2022/01/28 12:34:03;;;;;;;10.85;2.20;;;9.90;90.90;;;;;;5051794;28;20033;-69
2022/01/28 12:36:38;;;;;;;4.40;1.30;;;9.90;91.20;;;;;;5105850;28;20039;-69
2022/01/28 12:39:20;;;;;;;10.68;2.28;;;9.90;91.50;;;;;;5114064;28;20082;-69
2022/01/28 12:41:52;;;;;;;6.03;1.52;;;9.90;91.50;;;;;;5113243;28;20028;-68
2022/01/28 12:44:19;;;;;;;14.77;2.70;;;9.90;91.40;;;;;;5110800;28;20032;-69
2022/01/28 12:46:56;;;;;;;15.65;2.92;;;9.90;91.10;;;;;;5105038;28;20032;-69
2022/01/28 12:49:33;;;;;;;12.40;2.22;;;9.90;91.30;;;;;;5113603;28;20119;-68
2022/01/28 12:52:02;;;;;;;7.80;1.83;;;10.00;91.40;;;;;;5109282;28;20020;-69
2022/01/28 12:54:42;;;;;;;5.47;1.85;;;10.00;91.30;;;;;;5112828;28;20028;-69
2022/01/28 12:57:14;;;;;;;6.35;1.48;;;10.00;91.70;;;;;;5109345;28;20154;-68
2022/01/28 12:59:42;;;;;;;5.97;1.90;;;10.00;91.80;;;;;;5102660;28;20040;-68
2022/01/28 13:02:07;;;;;;;11.02;2.00;;;10.00;91.70;;;;;;5092101;28;20353;-68
2022/01/28 13:05:10;;;;;;;7.70;2.38;;;10.00;91.80;;;;;;5093542;28;20058;-68
2022/01/28 13:10:28;;;;;;;6.90;1.65;;;10.00;91.60;;;;;;5074418;28;20419;-67
2022/01/28 13:13:03;;;;;;;16.15;2.15;;;9.90;91.80;;;;;;5087223;28;20028;-69
2022/01/28 13:15:29;;;;;;;14.75;3.00;;;10.00;91.80;;;;;;5082442;28;20506;-69
2022/01/28 13:18:00;;;;;;;17.98;1.85;;;10.00;91.70;;;;;;5093013;28;20048;-69
2022/01/28 13:20:45;;;;;;;15.40;1.73;;;9.90;91.80;;;;;;5089583;28;20070;-69
2022/01/28 13:23:11;;;;;;;2.42;0.98;;;10.00;91.90;;;;;;5092736;28;20047;-69
2022/01/28 13:25:38;;;;;;;11.77;1.80;;;10.00;91.90;;;;;;5092961;28;20081;-69
2022/01/28 13:28:12;;;;;;;3.53;1.33;;;10.00;91.70;;;;;;5093125;28;20031;-69
2022/01/28 13:30:40;;;;;;;15.05;2.05;;;10.10;91.90;;;;;;5094842;28;20036;-70
2022/01/28 13:33:08;;;;;;;1.90;0.88;;;10.10;91.40;;;;;;5094188;28;20107;-69
2022/01/28 13:35:36;;;;;;;5.75;1.52;;;10.10;91.80;;;;;;5102357;28;20079;-68
2022/01/28 13:38:12;;;;;;;12.13;2.17;;;10.20;92.00;;;;;;5099450;28;20475;-69
2022/01/28 13:40:39;;;;;;;10.45;2.47;;;10.20;92.30;;;;;;5106419;28;20558;-69
2022/01/28 13:43:14;;;;;;;7.70;1.67;;;10.20;91.90;;;;;;5106827;28;20471;-70
2022/01/28 13:45:47;;;;;;;10.88;1.73;;;10.10;91.80;;;;;;5100475;28;20396;-69
2022/01/28 13:48:19;;;;;;;21.85;2.95;;;10.10;91.80;;;;;;5107783;28;20418;-69
2022/01/28 13:50:47;;;;;;;0.52;0.35;;;10.20;91.70;;;;;;5109425;28;20075;-69
2022/01/28 13:53:34;;;;;;;11.73;1.63;;;10.20;92.00;;;;;;5106513;28;20059;-69
2022/01/28 13:55:59;;;;;;;35.15;1.27;;;10.20;92.10;;;;;;5108232;28;20036;-69
2022/01/28 13:58:25;;;;;;;0.75;0.63;;;10.20;92.20;;;;;;5101413;28;20035;-69
2022/01/28 14:00:52;;;;;;;15.93;1.98;;;10.30;92.30;;;;;;5109996;28;20035;-68
2022/01/28 14:03:22;;;;;;;7.53;1.85;;;10.20;92.30;;;;;;5109562;28;20027;-68
2022/01/28 14:05:53;;;;;;;7.20;1.50;;;10.30;92.20;;;;;;5104858;28;20032;-69
2022/01/28 14:08:41;;;;;;;4.32;0.47;;;10.40;92.40;;;;;;5102933;28;20023;-69
2022/01/28 14:11:22;;;;;;;12.55;2.03;;;10.40;92.40;;;;;;5105593;28;20080;-68
2022/01/28 14:14:33;;;;;;;1.35;1.20;;;10.40;92.10;;;;;;5103263;28;20032;-69
2022/01/28 14:17:02;;;;;;;13.90;2.40;;;10.40;92.40;;;;;;5106259;28;20110;-70
2022/01/28 14:19:30;;;;;;;3.75;1.17;;;10.50;92.40;;;;;;5099922;28;20108;-70
2022/01/28 14:21:56;;;;;;;10.75;2.85;;;10.50;92.50;;;;;;5111097;28;20024;-69
2022/01/28 14:24:31;;;;;;;7.30;2.45;;;10.50;92.30;;;;;;5107060;28;20028;-69
2022/01/28 14:31:54;;;;;;;3.28;0.70;;;10.60;92.40;;;;;;5104850;28;20024;-69
2022/01/28 14:34:21;;;;;;;10.65;1.73;;;10.50;92.40;;;;;;5107446;28;20699;-70
2022/01/28 14:36:47;;;;;;;15.27;1.88;;;10.50;92.40;;;;;;5108032;28;20031;-68
2022/01/28 14:39:16;;;;;;;2.13;0.77;;;10.60;92.40;;;;;;5103598;28;20510;-68
2022/01/28 14:41:43;;;;;;;6.25;1.33;;;10.60;92.40;;;;;;5107058;28;20488;-68
2022/01/28 14:44:09;;;;;;;4.50;1.05;;;10.60;92.30;;;;;;5101105;28;20089;-69
2022/01/28 14:46:36;;;;;;;4.65;1.48;;;10.60;92.20;;;;;;5104522;28;20474;-68
2022/01/28 14:49:04;;;;;;;5.60;1.08;;;10.60;92.20;;;;;;5108623;28;20023;-72
2022/01/28 14:51:39;;;;;;;1.98;1.05;;;10.60;92.20;;;;;;5111244;28;20098;-68